sensor_id;sensor_type;location;lat;lon;timestamp;temperature;humidity
22908;DHT22;11620;50.050;8.690;2023-01-08T00:02:25;6.90;99.90
22908;DHT22;11620;50.050;8.690;2023-01-08T00:05:12;7.00;99.90
22908;DHT22;11620;50.050;8.690;2023-01-08T00:07:58;7.00;99.90
22908;DHT22;11620;50.050;8.690;2023-01-08T00:10:44;7.00;99.90
22908;DHT22;11620;50.050;8.690;2023-01-08T00:13:31;6.90;99.90
22908;DHT22;11620;50.050;8.690;2023-01-08T00:16:18;7.10;99.90
22908;DHT22;11620;50.050;8.690;2023-01-08T00:19:05;7.10;99.90
22908;DHT22;11620;50.050;8.690;2023-01-08T00:21:51;7.10;99.90
22908;DHT22;11620;50.050;8.690;2023-01-08T00:24:37;7.00;99.90
22908;DHT22;11620;50.050;8.690;2023-01-08T00:27:24;7.00;99.90
22908;DHT22;11620;50.050;8.690;2023-01-08T00:30:11;7.10;99.90
22908;DHT22;11620;50.050;8.690;2023-01-08T00:32:57;7.10;99.90
22908;DHT22;11620;50.050;8.690;2023-01-08T00:35:43;7.20;99.90
22908;DHT22;11620;50.050;8.690;2023-01-08T00:38:30;7.20;99.90
22908;DHT22;11620;50.050;8.690;2023-01-08T00:41:17;7.20;99.90
22908;DHT22;11620;50.050;8.690;2023-01-08T00:44:03;7.20;99.90
22908;DHT22;11620;50.050;8.690;2023-01-08T00:46:49;7.30;99.90
22908;DHT22;11620;50.050;8.690;2023-01-08T00:49:39;7.30;99.90
22908;DHT22;11620;50.050;8.690;2023-01-08T00:52:25;7.30;99.90
22908;DHT22;11620;50.050;8.690;2023-01-08T00:55:11;7.30;99.90
22908;DHT22;11620;50.050;8.690;2023-01-08T00:57:58;7.30;99.90
22908;DHT22;11620;50.050;8.690;2023-01-08T01:00:44;7.20;99.90
22908;DHT22;11620;50.050;8.690;2023-01-08T01:03:31;7.30;99.90
22908;DHT22;11620;50.050;8.690;2023-01-08T01:06:17;7.30;99.90
22908;DHT22;11620;50.050;8.690;2023-01-08T01:09:07;7.40;99.90
22908;DHT22;11620;50.050;8.690;2023-01-08T01:11:53;7.40;99.90
22908;DHT22;11620;50.050;8.690;2023-01-08T01:14:40;7.40;99.90
22908;DHT22;11620;50.050;8.690;2023-01-08T01:17:29;7.40;99.90
22908;DHT22;11620;50.050;8.690;2023-01-08T01:20:16;7.50;99.90
22908;DHT22;11620;50.050;8.690;2023-01-08T01:23:03;7.50;99.90
22908;DHT22;11620;50.050;8.690;2023-01-08T01:25:49;7.50;99.90
22908;DHT22;11620;50.050;8.690;2023-01-08T01:28:36;7.50;99.90
22908;DHT22;11620;50.050;8.690;2023-01-08T01:31:23;7.60;99.90
22908;DHT22;11620;50.050;8.690;2023-01-08T01:34:10;7.60;99.90
22908;DHT22;11620;50.050;8.690;2023-01-08T01:36:56;7.60;99.90
22908;DHT22;11620;50.050;8.690;2023-01-08T01:39:42;7.60;99.90
22908;DHT22;11620;50.050;8.690;2023-01-08T01:42:29;7.70;99.90
22908;DHT22;11620;50.050;8.690;2023-01-08T01:45:28;7.60;99.90
22908;DHT22;11620;50.050;8.690;2023-01-08T01:48:16;7.60;99.90
22908;DHT22;11620;50.050;8.690;2023-01-08T01:51:02;7.60;99.90
22908;DHT22;11620;50.050;8.690;2023-01-08T01:53:49;7.60;99.90
22908;DHT22;11620;50.050;8.690;2023-01-08T01:56:35;7.50;99.90
22908;DHT22;11620;50.050;8.690;2023-01-08T01:59:22;7.50;99.90
22908;DHT22;11620;50.050;8.690;2023-01-08T02:02:08;7.60;99.90
22908;DHT22;11620;50.050;8.690;2023-01-08T02:04:54;7.60;99.90
22908;DHT22;11620;50.050;8.690;2023-01-08T02:07:52;7.50;99.90
22908;DHT22;11620;50.050;8.690;2023-01-08T02:10:48;7.50;99.90
22908;DHT22;11620;50.050;8.690;2023-01-08T02:13:39;7.60;99.90
22908;DHT22;11620;50.050;8.690;2023-01-08T02:22:36;7.50;99.90
22908;DHT22;11620;50.050;8.690;2023-01-08T02:29:07;7.50;99.90
22908;DHT22;11620;50.050;8.690;2023-01-08T02:31:54;7.40;99.90
22908;DHT22;11620;50.050;8.690;2023-01-08T02:34:40;7.40;99.90
22908;DHT22;11620;50.050;8.690;2023-01-08T02:37:27;7.20;99.90
22908;DHT22;11620;50.050;8.690;2023-01-08T02:40:14;7.30;99.90
22908;DHT22;11620;50.050;8.690;2023-01-08T02:43:11;7.30;99.90
22908;DHT22;11620;50.050;8.690;2023-01-08T02:46:00;7.10;99.90
22908;DHT22;11620;50.050;8.690;2023-01-08T02:48:53;7.00;99.90
22908;DHT22;11620;50.050;8.690;2023-01-08T02:51:51;7.00;99.90
22908;DHT22;11620;50.050;8.690;2023-01-08T02:54:38;6.90;99.90
22908;DHT22;11620;50.050;8.690;2023-01-08T02:57:28;6.80;99.90
22908;DHT22;11620;50.050;8.690;2023-01-08T03:00:16;6.80;99.90
22908;DHT22;11620;50.050;8.690;2023-01-08T03:03:09;6.80;99.90
22908;DHT22;11620;50.050;8.690;2023-01-08T03:06:02;6.70;99.90
22908;DHT22;11620;50.050;8.690;2023-01-08T03:08:51;6.60;99.90
22908;DHT22;11620;50.050;8.690;2023-01-08T03:12:35;6.70;99.90
22908;DHT22;11620;50.050;8.690;2023-01-08T03:15:13;6.70;99.90
22908;DHT22;11620;50.050;8.690;2023-01-08T03:18:08;6.80;99.90
22908;DHT22;11620;50.050;8.690;2023-01-08T03:20:55;6.70;99.90
22908;DHT22;11620;50.050;8.690;2023-01-08T03:23:41;6.60;99.90
22908;DHT22;11620;50.050;8.690;2023-01-08T03:26:31;6.50;99.90
22908;DHT22;11620;50.050;8.690;2023-01-08T03:29:19;6.50;99.90
22908;DHT22;11620;50.050;8.690;2023-01-08T03:32:10;6.60;99.90
22908;DHT22;11620;50.050;8.690;2023-01-08T03:34:59;6.60;99.90
22908;DHT22;11620;50.050;8.690;2023-01-08T03:37:56;6.60;99.90
22908;DHT22;11620;50.050;8.690;2023-01-08T03:40:47;6.60;99.90
22908;DHT22;11620;50.050;8.690;2023-01-08T03:43:36;6.60;99.90
22908;DHT22;11620;50.050;8.690;2023-01-08T03:46:32;6.50;99.90
22908;DHT22;11620;50.050;8.690;2023-01-08T03:49:20;6.60;99.90
22908;DHT22;11620;50.050;8.690;2023-01-08T03:52:08;6.50;99.90
22908;DHT22;11620;50.050;8.690;2023-01-08T03:54:55;6.40;99.90
22908;DHT22;11620;50.050;8.690;2023-01-08T03:57:42;6.50;99.90
22908;DHT22;11620;50.050;8.690;2023-01-08T04:00:28;6.50;99.90
22908;DHT22;11620;50.050;8.690;2023-01-08T04:03:15;6.50;99.90
22908;DHT22;11620;50.050;8.690;2023-01-08T04:06:01;6.60;99.90
22908;DHT22;11620;50.050;8.690;2023-01-08T04:08:47;6.60;99.90
22908;DHT22;11620;50.050;8.690;2023-01-08T04:11:34;6.60;99.90
22908;DHT22;11620;50.050;8.690;2023-01-08T04:14:20;6.60;99.90
22908;DHT22;11620;50.050;8.690;2023-01-08T04:17:12;6.60;99.90
22908;DHT22;11620;50.050;8.690;2023-01-08T04:19:59;6.70;99.90
22908;DHT22;11620;50.050;8.690;2023-01-08T04:22:45;6.50;99.90
22908;DHT22;11620;50.050;8.690;2023-01-08T04:25:31;6.60;99.90
22908;DHT22;11620;50.050;8.690;2023-01-08T04:28:18;6.60;99.90
22908;DHT22;11620;50.050;8.690;2023-01-08T04:31:06;6.60;99.90
22908;DHT22;11620;50.050;8.690;2023-01-08T04:33:52;6.70;99.90
22908;DHT22;11620;50.050;8.690;2023-01-08T04:36:38;6.70;99.90
22908;DHT22;11620;50.050;8.690;2023-01-08T04:39:25;6.70;99.90
22908;DHT22;11620;50.050;8.690;2023-01-08T04:42:12;6.70;99.90
22908;DHT22;11620;50.050;8.690;2023-01-08T04:44:59;6.70;99.90
22908;DHT22;11620;50.050;8.690;2023-01-08T04:47:45;6.60;99.90
22908;DHT22;11620;50.050;8.690;2023-01-08T04:50:31;6.70;99.90
22908;DHT22;11620;50.050;8.690;2023-01-08T04:53:18;6.70;99.90
22908;DHT22;11620;50.050;8.690;2023-01-08T04:56:06;6.70;99.90
22908;DHT22;11620;50.050;8.690;2023-01-08T04:58:53;6.80;99.90
22908;DHT22;11620;50.050;8.690;2023-01-08T05:01:39;6.80;99.90
22908;DHT22;11620;50.050;8.690;2023-01-08T05:04:25;6.70;99.90
22908;DHT22;11620;50.050;8.690;2023-01-08T05:07:12;6.70;99.90
22908;DHT22;11620;50.050;8.690;2023-01-08T05:09:58;6.80;99.90
22908;DHT22;11620;50.050;8.690;2023-01-08T05:12:44;6.70;99.90
22908;DHT22;11620;50.050;8.690;2023-01-08T05:15:31;6.60;99.90
22908;DHT22;11620;50.050;8.690;2023-01-08T05:18:17;6.70;99.90
22908;DHT22;11620;50.050;8.690;2023-01-08T05:21:04;6.60;99.90
22908;DHT22;11620;50.050;8.690;2023-01-08T05:23:50;6.60;99.90
22908;DHT22;11620;50.050;8.690;2023-01-08T05:26:36;6.70;99.90
22908;DHT22;11620;50.050;8.690;2023-01-08T05:29:23;6.70;99.90
22908;DHT22;11620;50.050;8.690;2023-01-08T05:32:17;6.70;99.90
22908;DHT22;11620;50.050;8.690;2023-01-08T05:35:03;6.60;99.90
22908;DHT22;11620;50.050;8.690;2023-01-08T05:37:50;6.50;99.90
22908;DHT22;11620;50.050;8.690;2023-01-08T05:40:36;6.50;99.90
22908;DHT22;11620;50.050;8.690;2023-01-08T05:43:23;6.50;99.90
22908;DHT22;11620;50.050;8.690;2023-01-08T05:46:09;6.40;99.90
22908;DHT22;11620;50.050;8.690;2023-01-08T05:48:56;6.40;99.90
22908;DHT22;11620;50.050;8.690;2023-01-08T05:51:42;6.40;99.90
22908;DHT22;11620;50.050;8.690;2023-01-08T05:54:29;6.50;99.90
22908;DHT22;11620;50.050;8.690;2023-01-08T05:57:15;6.40;99.90
22908;DHT22;11620;50.050;8.690;2023-01-08T06:00:04;6.50;99.90
22908;DHT22;11620;50.050;8.690;2023-01-08T06:02:50;6.40;99.90
22908;DHT22;11620;50.050;8.690;2023-01-08T06:05:36;6.40;99.90
22908;DHT22;11620;50.050;8.690;2023-01-08T06:08:23;6.40;99.90
22908;DHT22;11620;50.050;8.690;2023-01-08T06:11:10;6.30;99.90
22908;DHT22;11620;50.050;8.690;2023-01-08T06:13:57;6.30;99.90
22908;DHT22;11620;50.050;8.690;2023-01-08T06:16:43;6.30;99.90
22908;DHT22;11620;50.050;8.690;2023-01-08T06:19:29;6.30;99.90
22908;DHT22;11620;50.050;8.690;2023-01-08T06:22:16;6.30;99.90
22908;DHT22;11620;50.050;8.690;2023-01-08T06:25:02;6.30;99.90
22908;DHT22;11620;50.050;8.690;2023-01-08T06:27:50;6.30;99.90
22908;DHT22;11620;50.050;8.690;2023-01-08T06:30:37;6.30;99.90
22908;DHT22;11620;50.050;8.690;2023-01-08T06:33:23;6.20;99.90
22908;DHT22;11620;50.050;8.690;2023-01-08T06:36:09;6.20;99.90
22908;DHT22;11620;50.050;8.690;2023-01-08T06:38:56;6.10;99.90
22908;DHT22;11620;50.050;8.690;2023-01-08T06:41:43;6.20;99.90
22908;DHT22;11620;50.050;8.690;2023-01-08T06:44:29;6.20;99.90
22908;DHT22;11620;50.050;8.690;2023-01-08T06:47:15;6.30;99.90
22908;DHT22;11620;50.050;8.690;2023-01-08T06:50:02;6.10;99.90
22908;DHT22;11620;50.050;8.690;2023-01-08T06:52:54;6.20;99.90
22908;DHT22;11620;50.050;8.690;2023-01-08T06:55:40;6.20;99.90
22908;DHT22;11620;50.050;8.690;2023-01-08T06:58:27;6.30;99.90
22908;DHT22;11620;50.050;8.690;2023-01-08T07:01:15;6.30;99.90
22908;DHT22;11620;50.050;8.690;2023-01-08T07:04:01;6.20;99.90
22908;DHT22;11620;50.050;8.690;2023-01-08T07:06:47;6.30;99.90
22908;DHT22;11620;50.050;8.690;2023-01-08T07:09:34;6.10;99.90
22908;DHT22;11620;50.050;8.690;2023-01-08T07:12:21;6.20;99.90
22908;DHT22;11620;50.050;8.690;2023-01-08T07:15:07;6.20;99.90
22908;DHT22;11620;50.050;8.690;2023-01-08T07:17:54;6.20;99.90
22908;DHT22;11620;50.050;8.690;2023-01-08T07:20:40;6.20;99.90
22908;DHT22;11620;50.050;8.690;2023-01-08T07:23:29;6.20;99.90
22908;DHT22;11620;50.050;8.690;2023-01-08T07:26:16;6.20;99.90
22908;DHT22;11620;50.050;8.690;2023-01-08T07:29:02;6.20;99.90
22908;DHT22;11620;50.050;8.690;2023-01-08T07:31:48;6.20;99.90
22908;DHT22;11620;50.050;8.690;2023-01-08T07:34:35;6.20;99.90
22908;DHT22;11620;50.050;8.690;2023-01-08T07:37:21;6.20;99.90
22908;DHT22;11620;50.050;8.690;2023-01-08T07:40:10;6.10;99.90
22908;DHT22;11620;50.050;8.690;2023-01-08T07:42:58;6.10;99.90
22908;DHT22;11620;50.050;8.690;2023-01-08T07:45:44;6.10;99.90
22908;DHT22;11620;50.050;8.690;2023-01-08T07:48:30;6.20;99.90
22908;DHT22;11620;50.050;8.690;2023-01-08T07:51:17;6.10;99.90
22908;DHT22;11620;50.050;8.690;2023-01-08T07:54:03;6.10;99.90
22908;DHT22;11620;50.050;8.690;2023-01-08T07:56:52;6.10;99.90
22908;DHT22;11620;50.050;8.690;2023-01-08T07:59:38;6.20;99.90
22908;DHT22;11620;50.050;8.690;2023-01-08T08:02:25;6.20;99.90
22908;DHT22;11620;50.050;8.690;2023-01-08T08:05:11;6.20;99.90
22908;DHT22;11620;50.050;8.690;2023-01-08T08:07:58;6.10;99.90
22908;DHT22;11620;50.050;8.690;2023-01-08T08:10:44;6.20;99.90
22908;DHT22;11620;50.050;8.690;2023-01-08T08:13:30;6.20;99.90
22908;DHT22;11620;50.050;8.690;2023-01-08T08:16:17;6.10;99.90
22908;DHT22;11620;50.050;8.690;2023-01-08T08:19:03;6.10;99.90
22908;DHT22;11620;50.050;8.690;2023-01-08T08:21:49;6.10;99.90
22908;DHT22;11620;50.050;8.690;2023-01-08T08:24:36;5.90;99.90
22908;DHT22;11620;50.050;8.690;2023-01-08T08:27:22;5.90;99.90
22908;DHT22;11620;50.050;8.690;2023-01-08T08:30:10;6.10;99.90
22908;DHT22;11620;50.050;8.690;2023-01-08T08:32:59;6.00;99.90
22908;DHT22;11620;50.050;8.690;2023-01-08T08:35:49;6.00;99.90
22908;DHT22;11620;50.050;8.690;2023-01-08T08:38:38;6.00;99.90
22908;DHT22;11620;50.050;8.690;2023-01-08T08:41:25;6.00;99.90
22908;DHT22;11620;50.050;8.690;2023-01-08T08:44:11;6.00;99.90
22908;DHT22;11620;50.050;8.690;2023-01-08T08:46:57;6.10;99.90
22908;DHT22;11620;50.050;8.690;2023-01-08T08:49:44;6.20;99.90
22908;DHT22;11620;50.050;8.690;2023-01-08T08:52:31;6.20;99.90
22908;DHT22;11620;50.050;8.690;2023-01-08T08:55:18;6.20;99.90
22908;DHT22;11620;50.050;8.690;2023-01-08T08:58:10;6.10;99.90
22908;DHT22;11620;50.050;8.690;2023-01-08T09:01:01;6.10;99.90
22908;DHT22;11620;50.050;8.690;2023-01-08T09:03:48;6.10;99.90
22908;DHT22;11620;50.050;8.690;2023-01-08T09:06:34;6.10;99.90
22908;DHT22;11620;50.050;8.690;2023-01-08T09:09:21;6.20;99.90
22908;DHT22;11620;50.050;8.690;2023-01-08T09:12:08;6.30;99.90
22908;DHT22;11620;50.050;8.690;2023-01-08T09:14:54;6.20;99.90
22908;DHT22;11620;50.050;8.690;2023-01-08T09:17:42;6.20;99.90
22908;DHT22;11620;50.050;8.690;2023-01-08T09:20:28;6.10;99.90
22908;DHT22;11620;50.050;8.690;2023-01-08T09:23:15;6.10;99.90
22908;DHT22;11620;50.050;8.690;2023-01-08T09:26:02;6.10;99.90
22908;DHT22;11620;50.050;8.690;2023-01-08T09:28:49;6.20;99.90
22908;DHT22;11620;50.050;8.690;2023-01-08T09:31:35;6.20;99.90
22908;DHT22;11620;50.050;8.690;2023-01-08T09:34:21;6.10;99.90
22908;DHT22;11620;50.050;8.690;2023-01-08T09:37:08;6.10;99.90
22908;DHT22;11620;50.050;8.690;2023-01-08T09:39:54;6.10;99.90
22908;DHT22;11620;50.050;8.690;2023-01-08T09:42:40;6.10;99.90
22908;DHT22;11620;50.050;8.690;2023-01-08T09:45:29;6.10;99.90
22908;DHT22;11620;50.050;8.690;2023-01-08T09:48:17;6.20;99.90
22908;DHT22;11620;50.050;8.690;2023-01-08T09:51:28;6.20;99.90
22908;DHT22;11620;50.050;8.690;2023-01-08T09:54:16;6.30;99.90
22908;DHT22;11620;50.050;8.690;2023-01-08T09:57:03;6.40;99.90
22908;DHT22;11620;50.050;8.690;2023-01-08T09:59:49;6.40;99.90
22908;DHT22;11620;50.050;8.690;2023-01-08T10:02:36;6.40;99.90
22908;DHT22;11620;50.050;8.690;2023-01-08T10:05:25;6.40;99.90
22908;DHT22;11620;50.050;8.690;2023-01-08T10:08:13;6.40;99.90
22908;DHT22;11620;50.050;8.690;2023-01-08T10:10:59;6.30;99.90
22908;DHT22;11620;50.050;8.690;2023-01-08T10:13:50;6.20;99.90
22908;DHT22;11620;50.050;8.690;2023-01-08T10:16:39;6.20;99.90
22908;DHT22;11620;50.050;8.690;2023-01-08T10:19:26;6.20;99.90
22908;DHT22;11620;50.050;8.690;2023-01-08T10:22:16;6.20;99.90
22908;DHT22;11620;50.050;8.690;2023-01-08T10:25:14;6.20;99.90
22908;DHT22;11620;50.050;8.690;2023-01-08T10:28:02;6.30;99.90
22908;DHT22;11620;50.050;8.690;2023-01-08T10:30:53;6.40;99.90
22908;DHT22;11620;50.050;8.690;2023-01-08T10:33:46;6.40;99.90
22908;DHT22;11620;50.050;8.690;2023-01-08T10:36:38;6.40;99.90
22908;DHT22;11620;50.050;8.690;2023-01-08T10:39:27;6.40;99.90
22908;DHT22;11620;50.050;8.690;2023-01-08T10:42:17;6.50;99.90
22908;DHT22;11620;50.050;8.690;2023-01-08T10:45:18;6.50;99.90
22908;DHT22;11620;50.050;8.690;2023-01-08T10:48:06;6.40;99.90
22908;DHT22;11620;50.050;8.690;2023-01-08T10:53:52;6.60;99.90
22908;DHT22;11620;50.050;8.690;2023-01-08T10:56:43;6.60;99.90
22908;DHT22;11620;50.050;8.690;2023-01-08T10:59:30;6.80;99.90
22908;DHT22;11620;50.050;8.690;2023-01-08T11:02:32;6.70;99.90
22908;DHT22;11620;50.050;8.690;2023-01-08T11:05:28;6.80;99.90
22908;DHT22;11620;50.050;8.690;2023-01-08T11:08:16;6.60;99.90
22908;DHT22;11620;50.050;8.690;2023-01-08T11:11:06;6.60;99.90
22908;DHT22;11620;50.050;8.690;2023-01-08T11:13:59;6.70;99.90
22908;DHT22;11620;50.050;8.690;2023-01-08T11:16:46;6.90;99.90
22908;DHT22;11620;50.050;8.690;2023-01-08T11:19:34;7.00;99.90
22908;DHT22;11620;50.050;8.690;2023-01-08T11:22:22;7.20;99.90
22908;DHT22;11620;50.050;8.690;2023-01-08T11:25:12;7.30;99.90
22908;DHT22;11620;50.050;8.690;2023-01-08T11:28:01;7.40;99.90
22908;DHT22;11620;50.050;8.690;2023-01-08T11:31:04;7.60;99.90
22908;DHT22;11620;50.050;8.690;2023-01-08T11:33:57;7.50;99.90
22908;DHT22;11620;50.050;8.690;2023-01-08T11:37:20;7.40;99.90
22908;DHT22;11620;50.050;8.690;2023-01-08T11:40:23;7.40;99.90
22908;DHT22;11620;50.050;8.690;2023-01-08T11:46:36;7.50;99.90
22908;DHT22;11620;50.050;8.690;2023-01-08T11:50:26;7.40;99.90
22908;DHT22;11620;50.050;8.690;2023-01-08T12:01:38;7.40;99.90
22908;DHT22;11620;50.050;8.690;2023-01-08T12:17:21;7.60;99.90
22908;DHT22;11620;50.050;8.690;2023-01-08T12:26:19;7.60;99.90
22908;DHT22;11620;50.050;8.690;2023-01-08T12:35:19;7.30;99.90
22908;DHT22;11620;50.050;8.690;2023-01-08T12:38:20;7.40;99.90
22908;DHT22;11620;50.050;8.690;2023-01-08T12:41:16;7.20;99.90
22908;DHT22;11620;50.050;8.690;2023-01-08T12:44:10;7.50;99.90
22908;DHT22;11620;50.050;8.690;2023-01-08T12:46:59;7.50;99.90
22908;DHT22;11620;50.050;8.690;2023-01-08T13:05:36;7.70;99.90
22908;DHT22;11620;50.050;8.690;2023-01-08T13:08:36;7.80;99.90
22908;DHT22;11620;50.050;8.690;2023-01-08T13:11:32;7.80;99.90
22908;DHT22;11620;50.050;8.690;2023-01-08T13:14:20;7.70;99.90
22908;DHT22;11620;50.050;8.690;2023-01-08T13:17:16;7.80;99.90
22908;DHT22;11620;50.050;8.690;2023-01-08T13:20:05;7.70;99.90
22908;DHT22;11620;50.050;8.690;2023-01-08T13:22:54;7.70;99.90
22908;DHT22;11620;50.050;8.690;2023-01-08T13:25:50;7.60;99.90
22908;DHT22;11620;50.050;8.690;2023-01-08T13:28:41;7.60;99.90
22908;DHT22;11620;50.050;8.690;2023-01-08T13:31:37;7.70;99.90
22908;DHT22;11620;50.050;8.690;2023-01-08T13:34:38;7.70;99.90
22908;DHT22;11620;50.050;8.690;2023-01-08T13:37:25;7.80;99.90
22908;DHT22;11620;50.050;8.690;2023-01-08T13:43:34;7.70;99.90
22908;DHT22;11620;50.050;8.690;2023-01-08T13:46:21;7.80;99.90
22908;DHT22;11620;50.050;8.690;2023-01-08T13:49:18;7.70;99.90
22908;DHT22;11620;50.050;8.690;2023-01-08T13:58:25;7.70;99.90
22908;DHT22;11620;50.050;8.690;2023-01-08T14:01:13;7.60;99.90
22908;DHT22;11620;50.050;8.690;2023-01-08T14:03:59;7.50;99.90
22908;DHT22;11620;50.050;8.690;2023-01-08T14:06:46;7.50;99.90
22908;DHT22;11620;50.050;8.690;2023-01-08T14:09:32;7.50;99.90
22908;DHT22;11620;50.050;8.690;2023-01-08T14:12:22;7.60;99.90
22908;DHT22;11620;50.050;8.690;2023-01-08T14:18:05;7.70;99.90
22908;DHT22;11620;50.050;8.690;2023-01-08T14:20:51;7.50;99.90
22908;DHT22;11620;50.050;8.690;2023-01-08T14:23:41;7.50;99.90
22908;DHT22;11620;50.050;8.690;2023-01-08T14:26:35;7.50;99.90
22908;DHT22;11620;50.050;8.690;2023-01-08T14:29:24;7.60;99.90
22908;DHT22;11620;50.050;8.690;2023-01-08T14:32:16;7.50;99.90
22908;DHT22;11620;50.050;8.690;2023-01-08T14:35:03;7.40;99.90
22908;DHT22;11620;50.050;8.690;2023-01-08T14:37:54;7.40;99.90
22908;DHT22;11620;50.050;8.690;2023-01-08T14:40:44;7.50;99.90
22908;DHT22;11620;50.050;8.690;2023-01-08T14:43:39;7.40;99.90
22908;DHT22;11620;50.050;8.690;2023-01-08T14:46:28;7.40;99.90
22908;DHT22;11620;50.050;8.690;2023-01-08T14:49:26;7.20;99.90
22908;DHT22;11620;50.050;8.690;2023-01-08T14:52:13;7.30;99.90
22908;DHT22;11620;50.050;8.690;2023-01-08T14:55:03;7.30;99.90
22908;DHT22;11620;50.050;8.690;2023-01-08T14:57:52;7.20;99.90
22908;DHT22;11620;50.050;8.690;2023-01-08T15:00:39;7.10;99.90
22908;DHT22;11620;50.050;8.690;2023-01-08T15:06:30;7.20;99.90
22908;DHT22;11620;50.050;8.690;2023-01-08T15:09:29;7.10;99.90
22908;DHT22;11620;50.050;8.690;2023-01-08T15:12:27;7.10;99.90
22908;DHT22;11620;50.050;8.690;2023-01-08T15:15:22;7.00;99.90
22908;DHT22;11620;50.050;8.690;2023-01-08T15:18:11;7.10;99.90
22908;DHT22;11620;50.050;8.690;2023-01-08T15:20:58;7.30;99.90
22908;DHT22;11620;50.050;8.690;2023-01-08T15:23:52;7.10;99.90
22908;DHT22;11620;50.050;8.690;2023-01-08T15:26:41;7.10;99.90
22908;DHT22;11620;50.050;8.690;2023-01-08T15:29:30;7.20;99.90
22908;DHT22;11620;50.050;8.690;2023-01-08T15:32:22;7.20;99.90
22908;DHT22;11620;50.050;8.690;2023-01-08T15:35:13;7.10;99.90
22908;DHT22;11620;50.050;8.690;2023-01-08T15:38:00;7.10;99.90
22908;DHT22;11620;50.050;8.690;2023-01-08T15:40:47;7.20;99.90
22908;DHT22;11620;50.050;8.690;2023-01-08T15:43:33;7.10;99.90
22908;DHT22;11620;50.050;8.690;2023-01-08T15:46:20;7.10;99.90
22908;DHT22;11620;50.050;8.690;2023-01-08T15:49:06;6.90;99.90
22908;DHT22;11620;50.050;8.690;2023-01-08T15:51:52;7.00;99.90
22908;DHT22;11620;50.050;8.690;2023-01-08T15:54:39;6.90;99.90
22908;DHT22;11620;50.050;8.690;2023-01-08T15:57:25;6.80;99.90
22908;DHT22;11620;50.050;8.690;2023-01-08T16:00:13;6.90;99.90
22908;DHT22;11620;50.050;8.690;2023-01-08T16:03:02;6.80;99.90
22908;DHT22;11620;50.050;8.690;2023-01-08T16:05:48;6.80;99.90
22908;DHT22;11620;50.050;8.690;2023-01-08T16:08:35;6.80;99.90
22908;DHT22;11620;50.050;8.690;2023-01-08T16:11:21;6.80;99.90
22908;DHT22;11620;50.050;8.690;2023-01-08T16:14:09;6.80;99.90
22908;DHT22;11620;50.050;8.690;2023-01-08T16:16:56;6.80;99.90
22908;DHT22;11620;50.050;8.690;2023-01-08T16:19:42;6.70;99.90
22908;DHT22;11620;50.050;8.690;2023-01-08T16:22:28;6.80;99.90
22908;DHT22;11620;50.050;8.690;2023-01-08T16:25:15;6.80;99.90
22908;DHT22;11620;50.050;8.690;2023-01-08T16:28:01;6.80;99.90
22908;DHT22;11620;50.050;8.690;2023-01-08T16:30:49;6.80;99.90
22908;DHT22;11620;50.050;8.690;2023-01-08T16:33:37;6.80;99.90
22908;DHT22;11620;50.050;8.690;2023-01-08T16:36:23;6.90;99.90
22908;DHT22;11620;50.050;8.690;2023-01-08T16:39:10;6.90;99.90
22908;DHT22;11620;50.050;8.690;2023-01-08T16:41:56;6.80;99.90
22908;DHT22;11620;50.050;8.690;2023-01-08T16:44:43;6.80;99.90
22908;DHT22;11620;50.050;8.690;2023-01-08T16:47:29;6.90;99.90
22908;DHT22;11620;50.050;8.690;2023-01-08T16:50:16;6.90;99.90
22908;DHT22;11620;50.050;8.690;2023-01-08T16:53:02;7.00;99.90
22908;DHT22;11620;50.050;8.690;2023-01-08T16:55:48;7.00;99.90
22908;DHT22;11620;50.050;8.690;2023-01-08T16:58:35;7.00;99.90
22908;DHT22;11620;50.050;8.690;2023-01-08T17:01:23;7.00;99.90
22908;DHT22;11620;50.050;8.690;2023-01-08T17:04:10;7.00;99.90
22908;DHT22;11620;50.050;8.690;2023-01-08T17:06:56;7.10;99.90
22908;DHT22;11620;50.050;8.690;2023-01-08T17:09:43;7.10;99.90
22908;DHT22;11620;50.050;8.690;2023-01-08T17:12:29;7.10;99.90
22908;DHT22;11620;50.050;8.690;2023-01-08T17:15:16;7.10;99.90
22908;DHT22;11620;50.050;8.690;2023-01-08T17:18:02;7.00;99.90
22908;DHT22;11620;50.050;8.690;2023-01-08T17:20:52;7.00;99.90
22908;DHT22;11620;50.050;8.690;2023-01-08T17:23:39;7.10;99.90
22908;DHT22;11620;50.050;8.690;2023-01-08T17:26:26;7.10;99.90
22908;DHT22;11620;50.050;8.690;2023-01-08T17:29:12;7.00;99.90
22908;DHT22;11620;50.050;8.690;2023-01-08T17:32:01;6.90;99.90
22908;DHT22;11620;50.050;8.690;2023-01-08T17:34:47;6.90;99.90
22908;DHT22;11620;50.050;8.690;2023-01-08T17:37:34;7.10;99.90
22908;DHT22;11620;50.050;8.690;2023-01-08T17:40:20;7.10;99.90
22908;DHT22;11620;50.050;8.690;2023-01-08T17:43:07;7.10;99.90
22908;DHT22;11620;50.050;8.690;2023-01-08T17:45:53;7.10;99.90
22908;DHT22;11620;50.050;8.690;2023-01-08T17:48:43;7.10;99.90
22908;DHT22;11620;50.050;8.690;2023-01-08T17:51:30;7.10;99.90
22908;DHT22;11620;50.050;8.690;2023-01-08T17:54:17;7.20;99.90
22908;DHT22;11620;50.050;8.690;2023-01-08T17:57:04;7.20;99.90
22908;DHT22;11620;50.050;8.690;2023-01-08T17:59:51;7.10;99.90
22908;DHT22;11620;50.050;8.690;2023-01-08T18:02:37;7.10;99.90
22908;DHT22;11620;50.050;8.690;2023-01-08T18:05:23;7.10;99.90
22908;DHT22;11620;50.050;8.690;2023-01-08T18:08:10;7.10;99.90
22908;DHT22;11620;50.050;8.690;2023-01-08T18:11:00;7.10;99.90
22908;DHT22;11620;50.050;8.690;2023-01-08T18:13:47;7.10;99.90
22908;DHT22;11620;50.050;8.690;2023-01-08T18:16:33;7.20;99.90
22908;DHT22;11620;50.050;8.690;2023-01-08T18:19:20;7.10;99.90
22908;DHT22;11620;50.050;8.690;2023-01-08T18:22:06;7.10;99.90
22908;DHT22;11620;50.050;8.690;2023-01-08T18:24:52;7.20;99.90
22908;DHT22;11620;50.050;8.690;2023-01-08T18:27:39;7.10;99.90
22908;DHT22;11620;50.050;8.690;2023-01-08T18:30:25;7.00;99.90
22908;DHT22;11620;50.050;8.690;2023-01-08T18:33:13;7.00;99.90
22908;DHT22;11620;50.050;8.690;2023-01-08T18:36:05;7.00;99.90
22908;DHT22;11620;50.050;8.690;2023-01-08T18:38:54;6.90;99.90
22908;DHT22;11620;50.050;8.690;2023-01-08T18:41:42;7.00;99.90
22908;DHT22;11620;50.050;8.690;2023-01-08T18:44:47;6.90;99.90
22908;DHT22;11620;50.050;8.690;2023-01-08T18:47:37;7.00;99.90
22908;DHT22;11620;50.050;8.690;2023-01-08T18:50:24;7.00;99.90
22908;DHT22;11620;50.050;8.690;2023-01-08T18:53:10;6.90;99.90
22908;DHT22;11620;50.050;8.690;2023-01-08T18:56:02;7.00;99.90
22908;DHT22;11620;50.050;8.690;2023-01-08T18:58:49;6.80;99.90
22908;DHT22;11620;50.050;8.690;2023-01-08T19:01:35;6.90;99.90
22908;DHT22;11620;50.050;8.690;2023-01-08T19:04:22;7.00;99.90
22908;DHT22;11620;50.050;8.690;2023-01-08T19:07:08;7.00;99.90
22908;DHT22;11620;50.050;8.690;2023-01-08T19:09:54;7.00;99.90
22908;DHT22;11620;50.050;8.690;2023-01-08T19:12:43;7.00;99.90
22908;DHT22;11620;50.050;8.690;2023-01-08T19:15:29;7.00;99.90
22908;DHT22;11620;50.050;8.690;2023-01-08T19:18:16;7.00;99.90
22908;DHT22;11620;50.050;8.690;2023-01-08T19:21:08;7.00;99.90
22908;DHT22;11620;50.050;8.690;2023-01-08T19:23:54;7.10;99.90